Time;durP1;ratioP1;P1;durP2;ratioP2;P2;SDS_P1;SDS_P2;PMS_P1;PMS_P2;Temp;Humidity;BMP_temperature;BMP_pressure;BME280_temperature;BME280_humidity;BME280_pressure;Samples;Min_cycle;Max_cycle;Signal;HPM_P1;HPM_P2
2022/01/19 05:20:06;;;;;;;41.60;14.95;;;;;;;-4.61;100.00;102087.59;5562252;32;199554;-87
2022/01/19 05:23:10;;;;;;;37.80;15.20;;;;;;;-4.68;100.00;102090.75;5557924;32;33803;-87
2022/01/19 05:26:13;;;;;;;43.72;16.85;;;;;;;-4.74;100.00;102089.69;5552263;32;34184;-85
2022/01/19 05:29:16;;;;;;;35.22;14.18;;;;;;;-4.72;100.00;102096.62;5547573;32;33726;-85
2022/01/19 05:32:19;;;;;;;40.67;13.75;;;;;;;-4.69;100.00;102096.75;5548873;32;35150;-85
2022/01/19 05:35:24;;;;;;;41.15;15.30;;;;;;;-4.68;100.00;102095.94;5548785;32;33819;-85
2022/01/19 05:38:27;;;;;;;36.78;15.52;;;;;;;-4.61;100.00;102088.47;5556296;32;34028;-85
2022/01/19 05:41:31;;;;;;;49.40;16.33;;;;;;;-4.58;100.00;102089.41;5558586;32;35196;-85
2022/01/19 05:44:35;;;;;;;44.63;16.60;;;;;;;-4.62;100.00;102091.00;5559261;32;34014;-85
2022/01/19 05:47:38;;;;;;;43.83;16.90;;;;;;;-4.69;100.00;102089.00;5557352;32;34797;-89
2022/01/19 05:50:42;;;;;;;47.20;16.35;;;;;;;-4.70;100.00;102088.09;5559452;32;35266;-85
2022/01/19 05:53:45;;;;;;;38.80;15.90;;;;;;;-4.65;100.00;102083.09;5545934;32;34053;-86
2022/01/19 05:56:47;;;;;;;42.62;15.50;;;;;;;-4.57;100.00;102086.91;5545645;32;34545;-86
2022/01/19 05:59:51;;;;;;;42.33;15.80;;;;;;;-4.34;100.00;102077.44;5547485;32;34695;-86
2022/01/19 06:02:54;;;;;;;45.50;15.60;;;;;;;-4.48;100.00;102086.38;5547158;32;34499;-86
2022/01/19 06:05:58;;;;;;;41.58;15.65;;;;;;;-4.53;100.00;102090.50;5548323;32;34332;-85
2022/01/19 06:09:09;;;;;;;33.55;15.25;;;;;;;-4.58;100.00;102089.41;5550686;32;34796;-85
2022/01/19 06:12:13;;;;;;;38.35;15.07;;;;;;;-4.61;100.00;102097.94;5538755;32;34091;-86
2022/01/19 06:15:17;;;;;;;40.83;16.55;;;;;;;-4.63;100.00;102099.59;5543647;32;34184;-85
2022/01/19 06:18:20;;;;;;;39.72;16.15;;;;;;;-4.62;100.00;102093.59;5536991;32;33816;-84
2022/01/19 06:21:24;;;;;;;39.03;15.60;;;;;;;-4.62;100.00;102091.00;5542034;32;34095;-84
2022/01/19 06:24:28;;;;;;;35.35;15.25;;;;;;;-4.62;100.00;102085.81;5544418;32;34211;-84
2022/01/19 06:27:30;;;;;;;44.85;16.40;;;;;;;-4.62;100.00;102086.69;5540703;32;34266;-84
2022/01/19 06:30:33;;;;;;;34.90;14.90;;;;;;;-4.60;100.00;102095.44;5524575;32;33743;-83
2022/01/19 06:33:36;;;;;;;34.50;14.25;;;;;;;-4.61;100.00;102090.19;5542097;32;34665;-83
2022/01/19 06:36:39;;;;;;;37.72;15.20;;;;;;;-4.62;100.00;102086.69;5536026;32;34656;-85
2022/01/19 06:39:42;;;;;;;36.15;14.63;;;;;;;-4.48;100.00;102084.66;5543583;32;34345;-87
2022/01/19 06:42:45;;;;;;;37.83;16.05;;;;;;;-4.48;100.00;102087.25;5566536;32;35147;-85
2022/01/19 06:45:48;;;;;;;34.13;14.85;;;;;;;-4.26;100.00;102082.03;5559410;32;33974;-84
2022/01/19 06:48:51;;;;;;;41.17;15.45;;;;;;;-4.29;100.00;102074.16;5561063;32;34698;-85
2022/01/19 06:51:54;;;;;;;36.88;15.48;;;;;;;-4.29;100.00;102076.75;5562157;32;35276;-85
2022/01/19 06:54:57;;;;;;;35.05;13.77;;;;;;;-4.40;100.00;102066.84;5547102;32;34362;-85
2022/01/19 06:57:59;;;;;;;33.63;14.02;;;;;;;-4.10;100.00;102081.81;5543306;32;34002;-85
2022/01/19 07:01:04;;;;;;;31.35;14.77;;;;;;;-3.95;100.00;102071.16;5548779;32;34415;-85
2022/01/19 07:04:11;;;;;;;36.80;14.30;;;;;;;-4.09;100.00;102061.94;5536883;32;34868;-84
2022/01/19 07:07:18;;;;;;;35.72;15.13;;;;;;;-4.17;100.00;102065.97;5536879;32;33521;-85
2022/01/19 07:10:21;;;;;;;38.55;14.80;;;;;;;-4.25;100.00;102071.75;5548925;32;33921;-84
2022/01/19 07:13:24;;;;;;;35.58;15.18;;;;;;;-4.08;100.00;102074.06;5546150;32;34227;-84
2022/01/19 07:16:27;;;;;;;37.65;14.65;;;;;;;-3.81;100.00;102071.63;5548867;32;34065;-85
2022/01/19 07:19:30;;;;;;;32.65;15.77;;;;;;;-3.69;100.00;102071.22;5563929;32;34534;-83
2022/01/19 07:22:34;;;;;;;34.63;15.93;;;;;;;-3.55;100.00;102065.66;5559593;32;34988;-85
2022/01/19 07:25:37;;;;;;;39.92;17.25;;;;;;;-3.43;100.00;102062.59;5563462;32;33885;-87
2022/01/19 07:28:41;;;;;;;36.78;15.93;;;;;;;-3.59;100.00;102062.06;5556025;32;34254;-85
2022/01/19 07:31:45;;;;;;;32.78;15.90;;;;;;;-3.67;100.00;102056.59;5548510;32;34597;-85
2022/01/19 07:34:48;;;;;;;36.03;17.00;;;;;;;-3.75;100.00;102052.84;5551068;32;33984;-85
2022/01/19 07:37:52;;;;;;;34.88;16.80;;;;;;;-3.74;100.00;102046.81;5559337;32;34067;-85
2022/01/19 07:40:55;;;;;;;39.35;18.02;;;;;;;-3.79;100.00;102053.53;5544775;32;34151;-85
2022/01/19 07:43:59;;;;;;;42.47;17.52;;;;;;;-3.73;100.00;102038.22;5553792;32;34200;-85
2022/01/19 07:47:03;;;;;;;39.00;17.52;;;;;;;-3.77;100.00;102033.75;5545110;32;34401;-84
2022/01/19 07:50:09;;;;;;;40.53;16.90;;;;;;;-3.71;100.00;102027.91;5546184;32;35173;-85
2022/01/19 07:53:12;;;;;;;38.95;16.05;;;;;;;-3.64;100.00;102035.06;5542361;32;35223;-89
2022/01/19 07:56:15;;;;;;;32.47;15.63;;;;;;;-3.60;100.00;102029.16;5550028;32;34590;-90
2022/01/19 07:59:18;;;;;;;39.85;15.88;;;;;;;-3.53;100.00;102028.56;5552487;32;33671;-89
2022/01/19 08:02:21;;;;;;;38.03;15.57;;;;;;;-3.38;99.97;102037.69;5547382;32;34227;-84
2022/01/19 08:05:31;;;;;;;37.85;15.85;;;;;;;-3.33;99.30;102024.91;5550618;32;32275;-83
2022/01/19 08:08:35;;;;;;;42.60;16.48;;;;;;;-3.31;99.10;102023.22;5551432;32;34344;-85
2022/01/19 08:11:38;;;;;;;39.75;16.50;;;;;;;-3.14;98.41;102024.69;5542265;32;34107;-85
2022/01/19 08:14:45;;;;;;;34.67;15.95;;;;;;;-3.06;97.96;102017.16;5544070;32;34491;-85
2022/01/19 08:17:51;;;;;;;38.20;15.00;;;;;;;-2.73;97.01;102019.06;5551513;32;34976;-85
2022/01/19 08:20:54;;;;;;;36.92;14.95;;;;;;;-2.67;95.77;102012.31;5545959;32;34379;-85
2022/01/19 08:23:59;;;;;;;38.70;16.40;;;;;;;-2.63;94.97;102012.44;5557564;32;34008;-85
2022/01/19 08:27:02;;;;;;;41.70;17.85;;;;;;;-2.49;94.31;102010.28;5542653;32;32324;-84
2022/01/19 08:30:10;;;;;;;43.83;18.33;;;;;;;-2.47;94.59;102011.19;5545169;32;33701;-85
2022/01/19 08:33:13;;;;;;;41.58;18.80;;;;;;;-2.51;94.80;102014.53;5539622;32;34762;-85
2022/01/19 08:36:17;;;;;;;43.15;18.67;;;;;;;-2.68;94.65;102019.22;5541373;32;34032;-84
2022/01/19 08:39:21;;;;;;;49.20;19.95;;;;;;;-2.62;94.91;102022.00;5536885;32;34763;-85
2022/01/19 08:42:25;;;;;;;47.58;19.00;;;;;;;-2.50;93.78;102018.03;5537615;32;34327;-85
2022/01/19 08:45:28;;;;;;;46.55;18.83;;;;;;;-2.59;93.83;102014.31;5549209;32;33835;-85
2022/01/19 08:48:31;;;;;;;43.95;19.17;;;;;;;-2.53;93.51;102011.00;5545964;32;34190;-86
2022/01/19 08:51:35;;;;;;;45.90;18.80;;;;;;;-2.40;93.38;102007.09;5551905;32;34118;-85
2022/01/19 08:54:38;;;;;;;42.17;18.87;;;;;;;-2.27;92.60;102007.47;5543510;32;33590;-85
2022/01/19 08:57:41;;;;;;;41.17;17.85;;;;;;;-2.22;92.27;101991.16;5537863;32;34568;-84
2022/01/19 09:00:47;;;;;;;37.47;17.08;;;;;;;-2.14;91.80;102000.88;5535885;32;33646;-84
2022/01/19 09:03:50;;;;;;;40.63;17.42;;;;;;;-2.06;91.76;101995.06;5534412;32;34490;-84
2022/01/19 09:06:53;;;;;;;41.37;19.25;;;;;;;-1.88;90.65;101983.41;5549392;32;34006;-84
2022/01/19 09:09:57;;;;;;;36.85;17.77;;;;;;;-1.56;89.03;101998.16;5545749;32;35355;-85
2022/01/19 09:13:00;;;;;;;39.28;17.35;;;;;;;-1.57;89.12;101989.47;5542368;32;34562;-86
2022/01/19 09:16:02;;;;;;;43.47;17.62;;;;;;;-1.49;89.53;101992.28;5533815;32;34285;-86
2022/01/19 09:19:09;;;;;;;43.97;17.70;;;;;;;-1.51;88.26;101991.38;5543310;32;34194;-87
2022/01/19 09:22:12;;;;;;;33.42;16.25;;;;;;;-1.15;87.75;101980.09;5542064;32;34749;-86
2022/01/19 09:25:15;;;;;;;39.65;14.93;;;;;;;-0.33;82.94;101988.03;5556749;32;34236;-87
2022/01/19 09:28:18;;;;;;;30.77;15.02;;;;;;;0.36;79.34;101985.06;5540410;32;34945;-87
2022/01/19 09:31:21;;;;;;;32.75;14.13;;;;;;;3.23;68.52;101979.94;5533484;32;34807;-87
2022/01/19 09:34:24;;;;;;;34.35;14.10;;;;;;;3.92;62.75;101967.16;5551405;32;32975;-86
2022/01/19 09:37:26;;;;;;;29.23;14.27;;;;;;;4.92;58.75;101962.94;5547498;32;33818;-88
2022/01/19 09:40:49;;;;;;;26.17;13.70;;;;;;;7.66;50.92;101968.34;5543896;32;34012;-91
2022/01/19 09:43:56;;;;;;;26.42;14.13;;;;;;;7.82;48.85;101948.78;5553266;32;34179;-90
2022/01/19 09:46:59;;;;;;;32.20;14.20;;;;;;;8.83;46.99;101943.78;5547168;32;35025;-87
2022/01/19 09:50:02;;;;;;;33.28;14.98;;;;;;;9.53;43.56;101931.00;5533848;32;34204;-87
2022/01/19 09:53:07;;;;;;;32.42;14.30;;;;;;;10.46;41.94;101928.97;5549949;32;34477;-87
2022/01/19 09:56:10;;;;;;;26.73;13.55;;;;;;;9.99;40.82;101929.16;5552892;32;33992;-86
2022/01/19 09:59:15;;;;;;;26.05;13.00;;;;;;;10.39;40.38;101919.41;5554788;32;34244;-86
2022/01/19 10:02:18;;;;;;;30.90;13.95;;;;;;;10.72;39.32;101913.31;5555422;32;34257;-86
2022/01/19 10:05:21;;;;;;;24.80;13.62;;;;;;;10.59;38.30;101891.53;5540739;32;35248;-87
2022/01/19 10:08:27;;;;;;;28.73;13.18;;;;;;;9.75;41.23;101889.03;5536524;32;33888;-87
2022/01/19 10:18:18;;;;;;;29.05;14.05;;;;;;;7.13;47.47;101868.59;5536419;32;34160;-88
2022/01/19 10:21:21;;;;;;;27.40;13.93;;;;;;;7.08;49.52;101871.31;5534258;32;34127;-87
2022/01/19 10:24:38;;;;;;;25.83;14.75;;;;;;;6.46;50.31;101867.50;5547097;32;34297;-87
2022/01/19 10:27:43;;;;;;;31.67;15.18;;;;;;;6.07;52.12;101851.09;5551000;32;34422;-87
2022/01/19 10:30:45;;;;;;;31.00;14.75;;;;;;;5.80;52.83;101837.22;5549593;32;34419;-87
2022/01/19 10:34:23;;;;;;;29.83;13.68;;;;;;;4.77;55.50;101837.63;5532992;32;34010;-88
2022/01/19 10:37:27;;;;;;;25.55;14.32;;;;;;;4.90;54.43;101827.97;5531196;32;33532;-87
2022/01/19 10:40:30;;;;;;;32.38;14.77;;;;;;;4.80;56.90;101824.47;5536911;32;34120;-87
2022/01/19 10:43:48;;;;;;;26.95;14.63;;;;;;;5.35;54.73;101817.28;5531179;32;34365;-90
2022/01/19 10:46:51;;;;;;;35.58;15.73;;;;;;;5.37;55.49;101802.34;5555783;32;33778;-87
2022/01/19 10:49:56;;;;;;;33.15;16.55;;;;;;;4.95;55.81;101797.28;5578203;32;34249;-84
2022/01/19 10:53:02;;;;;;;39.53;18.62;;;;;;;5.12;56.69;101796.31;5564047;32;34812;-83
2022/01/19 10:56:05;;;;;;;34.70;17.85;;;;;;;4.28;58.32;101780.75;5536150;32;33560;-88
2022/01/19 10:59:14;;;;;;;37.58;19.27;;;;;;;4.31;59.75;101779.00;5533823;32;34292;-89
2022/01/19 11:02:18;;;;;;;48.15;20.10;;;;;;;4.73;59.39;101775.44;5534416;32;34593;-88
2022/01/19 11:05:39;;;;;;;35.05;19.40;;;;;;;4.62;60.14;101779.84;5541939;32;33960;-87
2022/01/19 11:08:48;;;;;;;37.22;18.98;;;;;;;4.74;58.58;101766.66;5544670;32;34732;-87
2022/01/19 11:11:53;;;;;;;37.28;19.27;;;;;;;4.44;59.55;101758.81;5537188;32;35013;-87
2022/01/19 11:14:56;;;;;;;35.60;18.75;;;;;;;4.08;60.34;101747.50;5535642;32;34896;-88
2022/01/19 11:18:14;;;;;;;37.75;18.35;;;;;;;4.36;59.57;101744.84;5543444;32;34102;-88
2022/01/19 11:21:22;;;;;;;38.33;18.42;;;;;;;4.66;59.58;101742.13;5535406;32;34786;-89
2022/01/19 11:25:03;;;;;;;42.50;18.42;;;;;;;4.98;58.73;101730.62;5534007;32;34334;-89
2022/01/19 11:28:07;;;;;;;35.85;17.20;;;;;;;6.71;51.95;101724.00;5517746;32;33975;-88
2022/01/19 11:31:30;;;;;;;41.85;18.75;;;;;;;5.92;53.01;101723.88;5536972;32;34620;-88
2022/01/19 11:34:42;;;;;;;37.60;18.67;;;;;;;5.82;53.87;101722.19;5538069;32;33933;-89
2022/01/19 11:37:47;;;;;;;39.15;19.20;;;;;;;4.38;57.59;101706.28;5551193;32;34191;-87
2022/01/19 11:40:50;;;;;;;40.97;18.87;;;;;;;4.78;58.08;101701.78;5548392;32;33850;-88
2022/01/19 11:43:55;;;;;;;46.22;19.85;;;;;;;5.40;56.95;101697.06;5551399;32;33953;-88
2022/01/19 11:47:18;;;;;;;46.00;20.65;;;;;;;6.96;51.25;101685.00;5560763;32;34061;-86
2022/01/19 11:50:21;;;;;;;40.35;19.83;;;;;;;6.84;51.01;101679.88;5565855;32;34347;-86
2022/01/19 11:53:24;;;;;;;41.85;19.00;;;;;;;5.33;55.42;101682.19;5579180;32;35002;-87
2022/01/19 11:56:28;;;;;;;38.28;18.40;;;;;;;4.28;59.10;101673.06;5554872;32;34911;-88
2022/01/19 11:59:48;;;;;;;42.72;19.80;;;;;;;4.09;60.03;101667.84;5558989;32;34880;-86
2022/01/19 12:02:58;;;;;;;42.17;18.37;;;;;;;4.02;61.24;101650.34;5562553;32;34920;-88
2022/01/19 12:06:31;;;;;;;34.47;17.87;;;;;;;3.90;61.72;101645.97;5554916;32;34159;-89
2022/01/19 12:09:55;;;;;;;33.70;16.35;;;;;;;3.85;62.36;101639.84;5536653;32;33905;-87
2022/01/19 12:17:15;;;;;;;36.10;15.15;;;;;;;3.92;62.42;101636.34;5557783;32;33660;-87
2022/01/19 12:20:50;;;;;;;30.33;14.35;;;;;;;3.59;63.67;101640.75;5558505;32;34123;-87
2022/01/19 12:23:53;;;;;;;27.92;13.73;;;;;;;3.76;62.84;101625.00;5543404;32;34094;-85
2022/01/19 12:27:31;;;;;;;25.77;13.18;;;;;;;3.78;62.77;101634.63;5542115;32;33769;-86
2022/01/19 12:30:36;;;;;;;27.73;13.25;;;;;;;3.44;63.97;101623.25;5544770;32;33700;-87
2022/01/19 12:34:03;;;;;;;28.52;12.50;;;;;;;3.34;65.03;101623.28;5537417;32;34129;-88
2022/01/19 12:37:06;;;;;;;32.17;12.77;;;;;;;3.22;65.05;101607.53;5545958;32;34418;-89
2022/01/19 12:40:18;;;;;;;29.87;12.85;;;;;;;3.38;64.22;101597.91;5549498;32;34683;-88
2022/01/19 12:43:36;;;;;;;26.23;10.60;;;;;;;3.49;63.65;101588.31;5553775;32;34370;-87
2022/01/19 12:46:39;;;;;;;24.52;11.52;;;;;;;3.44;63.62;101597.91;5540600;32;32699;-84
2022/01/19 12:49:41;;;;;;;23.05;10.07;;;;;;;3.37;63.86;101583.06;5553780;32;35150;-86
2022/01/19 12:52:49;;;;;;;24.60;9.77;;;;;;;3.55;63.10;101579.53;5561273;32;34282;-85
2022/01/19 12:55:56;;;;;;;24.63;12.02;;;;;;;3.44;62.70;101576.03;5543046;32;33994;-85
2022/01/19 12:59:03;;;;;;;27.80;11.55;;;;;;;3.52;63.92;101574.28;5547538;32;34322;-85
2022/01/19 13:02:06;;;;;;;23.65;10.07;;;;;;;3.47;64.30;101563.78;5539928;32;34200;-85
2022/01/19 13:05:10;;;;;;;18.60;9.18;;;;;;;3.75;62.49;101565.50;5587276;26;33566;-84
2022/01/19 13:08:24;;;;;;;21.73;8.95;;;;;;;3.78;61.25;101549.75;5553849;32;34100;-84
2022/01/19 13:11:38;;;;;;;20.17;9.13;;;;;;;3.55;61.73;101555.91;5542674;32;33807;-84
2022/01/19 13:14:40;;;;;;;22.48;9.20;;;;;;;3.47;62.44;101545.44;5549485;32;34504;-85
2022/01/19 13:17:49;;;;;;;26.75;9.40;;;;;;;3.70;61.93;101534.03;5550843;32;35438;-84
2022/01/19 13:20:55;;;;;;;16.50;8.55;;;;;;;3.81;61.98;101528.75;5548422;32;34123;-83
2022/01/19 13:24:25;;;;;;;21.77;8.20;;;;;;;3.71;62.20;101532.25;5542866;32;33735;-85
2022/01/19 13:27:31;;;;;;;16.85;7.78;;;;;;;3.91;61.71;101524.34;5545852;32;34292;-85
2022/01/19 13:30:35;;;;;;;21.85;8.40;;;;;;;3.97;61.81;101524.31;5549174;32;34245;-85
2022/01/19 13:33:39;;;;;;;18.42;8.32;;;;;;;4.01;61.83;101528.69;5562772;32;34184;-85
2022/01/19 13:36:41;;;;;;;16.25;7.97;;;;;;;4.00;62.07;101516.44;5569795;32;33735;-85
2022/01/19 13:39:52;;;;;;;18.87;8.05;;;;;;;3.85;62.68;101517.38;5575522;32;33923;-85
2022/01/19 13:43:03;;;;;;;15.40;8.93;;;;;;;3.91;62.36;101513.84;5577537;32;33786;-84
2022/01/19 13:46:13;;;;;;;19.70;8.47;;;;;;;3.86;62.70;101500.72;5562814;32;34372;-84
2022/01/19 13:49:17;;;;;;;23.42;8.57;;;;;;;3.85;62.80;101509.50;5555370;32;34364;-84
2022/01/19 13:52:21;;;;;;;21.62;8.18;;;;;;;3.78;62.83;101503.38;5558929;32;34160;-84
2022/01/19 13:55:24;;;;;;;17.50;9.25;;;;;;;3.69;63.61;101498.16;5561712;32;33738;-83
2022/01/19 13:58:44;;;;;;;21.05;8.52;;;;;;;3.73;63.50;101496.41;5552322;32;34864;-84
2022/01/19 14:01:56;;;;;;;15.18;7.70;;;;;;;3.60;64.34;101495.56;5546448;32;33598;-85
2022/01/19 14:05:03;;;;;;;23.62;8.77;;;;;;;3.65;64.40;101491.16;5542185;32;34724;-84
2022/01/19 14:08:07;;;;;;;19.77;8.90;;;;;;;3.62;64.59;101486.81;5536844;32;34454;-85
2022/01/19 14:11:22;;;;;;;18.35;9.48;;;;;;;3.69;64.37;101487.66;5542111;32;34065;-84
2022/01/19 14:14:41;;;;;;;21.10;9.23;;;;;;;3.64;64.26;101478.94;5538478;32;33819;-85
2022/01/19 14:17:47;;;;;;;23.85;9.02;;;;;;;3.40;65.22;101485.97;5543195;32;34710;-85
2022/01/19 14:21:10;;;;;;;27.60;10.50;;;;;;;3.25;65.49;101479.00;5532626;32;33872;-84
2022/01/19 14:24:13;;;;;;;25.67;10.38;;;;;;;3.27;65.82;101477.25;5532397;32;34519;-90
2022/01/19 14:27:32;;;;;;;17.92;9.23;;;;;;;3.21;66.12;101474.63;5532257;32;33667;-88
2022/01/19 14:30:35;;;;;;;22.75;10.13;;;;;;;3.13;66.16;101466.81;5533124;32;33839;-85
2022/01/19 14:33:49;;;;;;;22.35;9.88;;;;;;;3.19;65.80;101463.28;5532095;32;34081;-85
2022/01/19 14:37:12;;;;;;;21.08;9.65;;;;;;;3.09;66.28;101459.81;5533379;32;34632;-85
2022/01/19 14:40:15;;;;;;;19.02;9.82;;;;;;;2.92;66.84;101447.59;5565320;32;33716;-84
2022/01/19 14:43:22;;;;;;;19.48;9.10;;;;;;;2.96;67.55;101449.34;5577330;32;34052;-84
2022/01/19 14:46:41;;;;;;;15.90;9.15;;;;;;;2.89;67.80;101444.97;5583724;32;34589;-85
2022/01/19 14:49:45;;;;;;;19.75;10.07;;;;;;;2.82;68.38;101436.22;5573621;32;35162;-85
2022/01/19 14:52:54;;;;;;;20.23;8.63;;;;;;;2.82;68.40;101430.13;5545045;32;34181;-85
2022/01/19 14:55:57;;;;;;;19.95;8.48;;;;;;;2.87;68.91;101432.75;5545126;32;34525;-85
2022/01/19 14:59:17;;;;;;;23.90;10.45;;;;;;;2.93;68.86;101425.72;5549596;32;33776;-85
2022/01/19 15:02:20;;;;;;;21.62;9.88;;;;;;;2.75;69.60;101417.88;5533039;32;34048;-84
2022/01/19 15:05:44;;;;;;;19.87;9.00;;;;;;;2.60;70.58;101421.38;5522464;32;34166;-85
2022/01/19 15:08:47;;;;;;;18.40;8.75;;;;;;;2.53;71.39;101417.91;5521147;32;34324;-85
2022/01/19 15:11:50;;;;;;;20.55;8.65;;;;;;;2.44;72.22;101416.16;5513499;32;33765;-84
2022/01/19 15:14:57;;;;;;;21.27;9.23;;;;;;;2.48;71.98;101424.88;5512641;32;34089;-89
2022/01/19 15:18:02;;;;;;;14.02;8.77;;;;;;;2.36;72.51;101418.75;5521849;32;33826;-90
2022/01/19 15:21:05;;;;;;;21.20;9.32;;;;;;;2.26;73.10;101402.16;5558334;32;35221;-85
2022/01/19 15:24:08;;;;;;;23.00;9.10;;;;;;;2.22;73.21;101400.38;5544329;32;34946;-85
2022/01/19 15:27:13;;;;;;;23.42;8.93;;;;;;;2.14;73.71;101404.75;5553775;32;34860;-85
2022/01/19 15:30:16;;;;;;;21.37;10.13;;;;;;;2.12;74.21;101399.50;5553491;32;33985;-85
2022/01/19 15:33:20;;;;;;;22.65;9.68;;;;;;;2.01;74.61;101394.25;5547617;32;33963;-85
2022/01/19 15:36:23;;;;;;;23.62;9.57;;;;;;;1.96;74.94;101395.12;5526701;32;34028;-85
2022/01/19 15:39:26;;;;;;;24.48;10.68;;;;;;;1.76;75.54;101390.69;5523573;32;33871;-85
2022/01/19 15:42:29;;;;;;;22.87;9.50;;;;;;;1.81;75.67;101385.50;5516083;32;34353;-85
2022/01/19 15:45:35;;;;;;;18.37;9.18;;;;;;;1.72;76.01;101386.34;5535329;32;34703;-86
2022/01/19 15:48:38;;;;;;;17.37;8.18;;;;;;;1.73;75.26;101375.87;5532681;32;35129;-85
2022/01/19 15:51:42;;;;;;;23.27;8.23;;;;;;;1.75;74.44;101363.66;5534420;32;34007;-86
2022/01/19 15:54:46;;;;;;;17.15;7.95;;;;;;;1.74;74.36;101371.50;5532918;32;34150;-84
2022/01/19 15:57:49;;;;;;;14.90;7.57;;;;;;;1.69;74.32;101366.25;5524836;32;34289;-85
2022/01/19 16:00:52;;;;;;;19.77;8.10;;;;;;;1.73;74.01;101364.53;5545254;32;34365;-85
2022/01/19 16:03:56;;;;;;;17.77;7.43;;;;;;;1.69;74.19;101360.16;5540584;32;33670;-84
2022/01/19 16:06:58;;;;;;;21.35;9.32;;;;;;;1.64;74.55;101365.37;5548761;32;34200;-85
2022/01/19 16:10:03;;;;;;;19.62;7.60;;;;;;;1.57;74.76;101367.06;5552062;32;33767;-85
2022/01/19 16:13:06;;;;;;;21.80;8.40;;;;;;;1.44;75.12;101362.69;5552857;32;34615;-85
2022/01/19 16:16:19;;;;;;;20.83;8.70;;;;;;;1.30;75.71;101367.84;5553345;32;34348;-85
2022/01/19 16:19:22;;;;;;;18.10;8.48;;;;;;;1.15;76.26;101363.44;5552706;32;34326;-84
2022/01/19 16:29:08;;;;;;;25.17;10.68;;;;;;;0.90;79.36;101345.00;5552583;32;34160;-85
2022/01/19 16:32:11;;;;;;;28.30;11.93;;;;;;;0.87;79.69;101340.62;5551817;32;34727;-85
2022/01/19 16:35:14;;;;;;;21.90;11.30;;;;;;;0.72;81.32;101340.53;5551742;32;33871;-85
